Time;durP1;ratioP1;P1;durP2;ratioP2;P2;SDS_P1;SDS_P2;PMS_P1;PMS_P2;Temp;Humidity;BMP_temperature;BMP_pressure;BME280_temperature;BME280_humidity;BME280_pressure;Samples;Min_cycle;Max_cycle;Signal;HPM_P1;HPM_P2
2023/01/25 00:02:05;;;;;;;59.37;31.27;;;1.20;99.90;;;;;;5020435;28;20198;-63
2023/01/25 00:04:35;;;;;;;56.33;30.70;;;1.30;99.90;;;;;;5016436;28;20213;-63
2023/01/25 00:07:06;;;;;;;60.93;31.63;;;1.30;99.90;;;;;;5029986;28;20340;-63
2023/01/25 00:09:34;;;;;;;62.80;31.90;;;1.30;99.90;;;;;;5024276;28;20220;-63
2023/01/25 00:12:03;;;;;;;64.37;32.70;;;1.20;99.90;;;;;;5024942;28;20702;-63
2023/01/25 00:14:32;;;;;;;64.33;32.17;;;1.20;99.90;;;;;;5020513;28;20206;-63
2023/01/25 00:17:00;;;;;;;59.10;30.33;;;1.20;99.90;;;;;;5028636;28;20271;-63
2023/01/25 00:19:28;;;;;;;62.43;31.17;;;1.20;99.90;;;;;;5030043;28;20276;-63
2023/01/25 00:21:58;;;;;;;60.43;29.77;;;1.20;99.90;;;;;;5022205;28;20200;-63
2023/01/25 00:24:26;;;;;;;58.10;29.87;;;1.20;99.90;;;;;;5024565;28;20279;-63
2023/01/25 00:26:55;;;;;;;60.37;30.90;;;1.20;99.90;;;;;;5029268;28;20255;-63
2023/01/25 00:29:23;;;;;;;56.97;28.73;;;1.20;99.90;;;;;;5023291;28;20221;-63
2023/01/25 00:32:01;;;;;;;56.80;29.30;;;1.20;99.90;;;;;;5025801;28;20555;-63
2023/01/25 00:34:48;;;;;;;54.70;28.07;;;1.20;99.90;;;;;;5020645;28;20200;-63
2023/01/25 00:37:28;;;;;;;63.80;31.00;;;1.10;99.90;;;;;;5028441;28;20193;-63
2023/01/25 00:39:56;;;;;;;61.07;30.00;;;1.10;99.90;;;;;;5028445;28;20189;-62
2023/01/25 00:42:25;;;;;;;65.07;31.67;;;1.10;99.90;;;;;;5029388;28;20216;-63
2023/01/25 00:44:53;;;;;;;60.50;30.90;;;1.10;99.90;;;;;;5029495;28;20227;-63
2023/01/25 00:47:21;;;;;;;62.03;30.70;;;1.10;99.90;;;;;;5030008;28;20577;-63
2023/01/25 00:49:50;;;;;;;59.73;30.70;;;1.10;99.90;;;;;;5029049;28;20702;-63
2023/01/25 00:52:18;;;;;;;60.00;31.13;;;1.20;99.90;;;;;;5020369;28;20190;-63
2023/01/25 00:54:48;;;;;;;64.40;32.63;;;1.10;99.90;;;;;;5035076;28;20571;-64
2023/01/25 00:57:16;;;;;;;59.57;31.40;;;1.10;99.90;;;;;;5022100;28;20276;-64
2023/01/25 00:59:46;;;;;;;63.10;31.63;;;1.10;99.90;;;;;;5031231;28;20221;-64
2023/01/25 01:02:14;;;;;;;60.93;31.30;;;1.10;99.90;;;;;;5016493;28;20197;-64
2023/01/25 01:04:43;;;;;;;60.00;30.53;;;1.00;99.90;;;;;;5031592;28;20617;-64
2023/01/25 01:07:13;;;;;;;58.93;29.87;;;1.10;99.90;;;;;;5020163;28;20734;-64
2023/01/25 01:09:41;;;;;;;59.03;31.17;;;1.00;99.90;;;;;;5020012;28;20202;-64
2023/01/25 01:12:11;;;;;;;64.37;32.67;;;1.00;99.90;;;;;;5025171;28;20256;-64
2023/01/25 01:14:39;;;;;;;58.03;30.40;;;1.10;99.90;;;;;;5026061;28;20194;-64
2023/01/25 01:17:08;;;;;;;63.47;31.43;;;1.10;99.90;;;;;;5028551;28;20189;-64
2023/01/25 01:19:36;;;;;;;60.00;30.73;;;1.10;99.90;;;;;;5021362;28;20213;-64
2023/01/25 01:22:04;;;;;;;63.27;32.03;;;1.10;99.90;;;;;;5028911;28;20660;-63
2023/01/25 01:24:33;;;;;;;67.23;33.40;;;1.10;99.90;;;;;;5019431;28;20664;-64
2023/01/25 01:27:01;;;;;;;65.50;31.93;;;1.10;99.90;;;;;;5023483;28;20247;-64
2023/01/25 01:29:30;;;;;;;64.67;32.27;;;1.00;99.90;;;;;;5031573;28;20528;-64
2023/01/25 01:31:59;;;;;;;61.10;31.57;;;1.10;99.90;;;;;;5029618;28;20198;-64
2023/01/25 01:34:28;;;;;;;61.33;31.73;;;1.10;99.90;;;;;;5023895;28;20639;-64
2023/01/25 01:36:56;;;;;;;64.13;31.53;;;1.10;99.90;;;;;;5019310;28;20185;-64
2023/01/25 01:39:25;;;;;;;64.50;31.90;;;1.10;99.90;;;;;;5028290;28;20826;-63
2023/01/25 01:41:53;;;;;;;57.87;30.70;;;1.00;99.90;;;;;;5023374;28;20220;-64
2023/01/25 01:44:37;;;;;;;61.67;30.93;;;1.00;99.90;;;;;;5025102;28;20186;-64
2023/01/25 01:47:12;;;;;;;66.17;32.60;;;1.00;99.90;;;;;;5024354;28;20252;-64
2023/01/25 01:49:41;;;;;;;59.97;30.60;;;1.00;99.90;;;;;;5024909;28;20272;-64
2023/01/25 01:52:13;;;;;;;64.67;31.43;;;1.00;99.90;;;;;;5026796;28;20197;-63
2023/01/25 01:54:45;;;;;;;62.10;30.90;;;1.00;99.90;;;;;;5022603;28;20202;-64
2023/01/25 01:57:17;;;;;;;62.83;32.43;;;1.00;99.90;;;;;;5023049;28;20202;-64
2023/01/25 01:59:50;;;;;;;71.53;32.63;;;1.00;99.90;;;;;;5019138;28;20205;-64
2023/01/25 02:02:22;;;;;;;66.33;33.97;;;0.90;99.90;;;;;;5023789;28;20661;-64
2023/01/25 02:04:53;;;;;;;57.40;30.30;;;0.90;99.90;;;;;;5025867;28;20265;-64
2023/01/25 02:07:28;;;;;;;62.03;31.43;;;0.90;99.90;;;;;;5017075;28;20228;-64
2023/01/25 02:09:58;;;;;;;63.20;31.73;;;0.90;99.90;;;;;;5021314;28;20219;-64
2023/01/25 02:12:27;;;;;;;66.93;33.30;;;0.90;99.90;;;;;;5027923;28;20217;-64
2023/01/25 02:14:56;;;;;;;67.40;32.27;;;1.00;99.90;;;;;;5028031;28;20284;-64
2023/01/25 02:17:28;;;;;;;68.00;33.33;;;1.00;99.90;;;;;;5023877;28;20186;-64
2023/01/25 02:20:03;;;;;;;62.57;32.10;;;1.00;99.90;;;;;;5026546;28;20200;-64
2023/01/25 02:22:39;;;;;;;63.93;32.73;;;1.00;99.90;;;;;;5027460;28;20220;-64
2023/01/25 02:25:11;;;;;;;62.33;32.20;;;0.90;99.90;;;;;;5028295;28;20199;-64
2023/01/25 02:27:43;;;;;;;65.63;32.37;;;0.90;99.90;;;;;;5026548;28;20216;-63
2023/01/25 02:30:12;;;;;;;64.80;31.67;;;0.90;99.90;;;;;;5026274;28;20217;-64
2023/01/25 02:32:40;;;;;;;64.87;32.03;;;1.00;99.90;;;;;;5019263;28;20204;-64
2023/01/25 02:35:18;;;;;;;65.57;32.23;;;0.90;99.90;;;;;;5029338;28;20200;-64
2023/01/25 02:37:46;;;;;;;65.63;32.83;;;0.90;99.90;;;;;;5026144;28;20200;-64
2023/01/25 02:40:17;;;;;;;63.03;32.47;;;0.90;99.90;;;;;;5020513;28;20198;-64
2023/01/25 02:42:46;;;;;;;65.57;32.37;;;0.80;99.90;;;;;;5029023;28;20235;-64
2023/01/25 02:45:17;;;;;;;63.93;32.77;;;0.80;99.90;;;;;;5026593;28;20195;-63
2023/01/25 02:47:47;;;;;;;69.73;33.50;;;0.80;99.90;;;;;;5040881;28;20659;-64
2023/01/25 02:50:16;;;;;;;69.50;33.57;;;0.80;99.90;;;;;;5022238;28;20193;-63
2023/01/25 02:52:44;;;;;;;69.03;33.60;;;0.80;99.90;;;;;;5028714;28;20204;-63
2023/01/25 02:55:13;;;;;;;66.47;33.17;;;0.80;99.90;;;;;;5026382;28;20208;-63
2023/01/25 02:57:43;;;;;;;68.67;32.63;;;0.80;99.90;;;;;;5027725;28;20294;-64
2023/01/25 03:00:12;;;;;;;68.17;32.70;;;0.80;99.90;;;;;;5026535;28;20713;-64
2023/01/25 03:02:40;;;;;;;67.90;33.40;;;0.80;99.90;;;;;;5022230;28;20201;-64
2023/01/25 03:05:09;;;;;;;66.37;33.17;;;0.80;99.90;;;;;;5019484;28;20205;-64
2023/01/25 03:07:38;;;;;;;71.23;35.73;;;0.90;99.90;;;;;;5021356;28;20316;-63
2023/01/25 03:10:06;;;;;;;72.90;34.03;;;0.80;99.90;;;;;;5020278;28;20192;-63
2023/01/25 03:12:35;;;;;;;73.87;36.37;;;0.80;99.90;;;;;;5027590;28;20217;-64
2023/01/25 03:15:06;;;;;;;75.73;37.13;;;0.90;99.90;;;;;;5021247;28;20209;-63
2023/01/25 03:17:36;;;;;;;74.90;35.63;;;0.90;99.90;;;;;;5020815;28;20592;-64
2023/01/25 03:20:05;;;;;;;76.10;35.87;;;0.90;99.90;;;;;;5017516;28;20201;-64
2023/01/25 03:22:34;;;;;;;76.07;36.23;;;0.90;99.90;;;;;;5021461;28;20200;-64
2023/01/25 03:25:02;;;;;;;75.40;36.47;;;0.90;99.90;;;;;;5025971;28;20186;-64
2023/01/25 03:27:31;;;;;;;79.63;37.47;;;0.90;99.90;;;;;;5025736;28;20193;-63
2023/01/25 03:29:59;;;;;;;76.80;36.03;;;0.90;99.90;;;;;;5022030;28;20201;-63
2023/01/25 03:32:29;;;;;;;70.40;34.53;;;0.80;99.90;;;;;;5017507;28;20224;-63
2023/01/25 03:34:57;;;;;;;74.63;35.83;;;0.90;99.90;;;;;;5028125;28;20212;-63
2023/01/25 03:37:28;;;;;;;76.43;38.03;;;0.90;99.90;;;;;;5025665;28;20204;-63
2023/01/25 03:39:57;;;;;;;80.77;37.60;;;0.90;99.90;;;;;;5039825;28;20190;-63
2023/01/25 03:42:25;;;;;;;78.60;36.33;;;0.80;99.90;;;;;;5021405;28;20567;-63
2023/01/25 03:44:53;;;;;;;76.60;36.60;;;0.80;99.90;;;;;;5025660;28;20205;-63
2023/01/25 03:47:22;;;;;;;78.80;37.03;;;0.80;99.90;;;;;;5023556;28;20203;-63
2023/01/25 03:49:51;;;;;;;77.33;36.17;;;0.80;99.90;;;;;;5016599;28;20206;-64
2023/01/25 03:52:24;;;;;;;76.47;35.73;;;0.80;99.90;;;;;;5025151;28;20786;-63
2023/01/25 03:54:52;;;;;;;78.70;37.13;;;0.80;99.90;;;;;;5028304;28;20227;-63
2023/01/25 03:57:20;;;;;;;76.83;35.43;;;0.80;99.90;;;;;;5025794;28;20571;-63
2023/01/25 03:59:49;;;;;;;77.10;37.57;;;0.80;99.90;;;;;;5023275;28;20198;-63
2023/01/25 04:02:17;;;;;;;75.33;35.30;;;0.80;99.90;;;;;;5014734;28;20194;-64
2023/01/25 04:04:45;;;;;;;77.57;36.93;;;0.80;99.90;;;;;;5017886;28;20217;-63
2023/01/25 04:07:15;;;;;;;74.97;36.33;;;0.80;99.90;;;;;;5014673;28;20256;-63
2023/01/25 04:09:43;;;;;;;75.60;36.40;;;0.80;99.90;;;;;;5020392;28;20197;-64
2023/01/25 04:12:11;;;;;;;74.43;35.93;;;0.70;99.90;;;;;;5023301;28;20209;-63
2023/01/25 04:14:42;;;;;;;72.47;35.30;;;0.70;99.90;;;;;;5017017;28;20747;-63
2023/01/25 04:17:12;;;;;;;81.63;37.43;;;0.80;99.90;;;;;;5016075;28;20198;-64
2023/01/25 04:19:41;;;;;;;79.53;36.20;;;0.80;99.90;;;;;;5025257;28;20186;-64
2023/01/25 04:22:09;;;;;;;78.97;36.00;;;0.70;99.90;;;;;;5021129;28;20197;-63
2023/01/25 04:24:39;;;;;;;75.50;35.90;;;0.60;99.90;;;;;;5028259;28;20248;-63
2023/01/25 04:27:07;;;;;;;73.03;35.80;;;0.60;99.90;;;;;;5021007;28;20205;-63
2023/01/25 04:29:36;;;;;;;73.67;35.37;;;0.60;99.90;;;;;;5026128;28;20197;-63
2023/01/25 04:32:09;;;;;;;74.70;35.20;;;0.60;99.90;;;;;;5025908;28;20209;-63
2023/01/25 04:34:37;;;;;;;73.27;34.87;;;0.70;99.90;;;;;;5021212;28;20204;-64
2023/01/25 04:37:06;;;;;;;76.53;34.23;;;0.70;99.90;;;;;;5022257;28;20312;-63
2023/01/25 04:39:35;;;;;;;77.67;36.07;;;0.60;99.90;;;;;;5020027;28;20205;-64
2023/01/25 04:42:05;;;;;;;73.77;35.37;;;0.60;99.90;;;;;;5013408;28;20216;-63
2023/01/25 04:44:33;;;;;;;73.83;35.23;;;0.60;99.90;;;;;;5024165;28;20204;-64
2023/01/25 04:47:02;;;;;;;77.77;35.20;;;0.60;99.90;;;;;;5022008;28;20190;-63
2023/01/25 04:49:31;;;;;;;76.23;35.40;;;0.60;99.90;;;;;;5032824;28;20193;-63
2023/01/25 04:51:59;;;;;;;78.83;36.63;;;0.60;99.90;;;;;;5029120;28;20210;-63
2023/01/25 04:54:27;;;;;;;74.27;34.57;;;0.70;99.90;;;;;;5022067;28;20277;-63
2023/01/25 04:56:55;;;;;;;74.30;35.53;;;0.60;99.90;;;;;;5016750;28;20208;-63
2023/01/25 04:59:25;;;;;;;72.63;34.93;;;0.60;99.90;;;;;;5033763;28;20220;-63
2023/01/25 05:01:53;;;;;;;69.27;34.00;;;0.60;99.90;;;;;;5019430;28;20197;-64
2023/01/25 05:04:22;;;;;;;82.03;36.83;;;0.60;99.90;;;;;;5031414;28;20201;-64
2023/01/25 05:06:51;;;;;;;74.90;34.80;;;0.60;99.90;;;;;;5021680;28;20269;-64
2023/01/25 05:09:19;;;;;;;72.53;34.90;;;0.60;99.90;;;;;;5020194;28;20195;-63
2023/01/25 05:11:48;;;;;;;79.60;37.00;;;0.60;99.90;;;;;;5020360;28;20212;-63
2023/01/25 05:14:16;;;;;;;76.70;36.60;;;0.60;99.90;;;;;;5023125;28;22595;-64
2023/01/25 05:16:46;;;;;;;74.40;36.30;;;0.70;99.90;;;;;;5026797;28;20280;-64
2023/01/25 05:19:15;;;;;;;79.30;36.70;;;0.70;99.90;;;;;;5026397;28;20194;-63
2023/01/25 05:21:58;;;;;;;79.73;36.80;;;0.60;99.90;;;;;;5018010;28;20204;-64
2023/01/25 05:24:28;;;;;;;81.70;37.27;;;0.60;99.90;;;;;;5014092;28;20197;-64
2023/01/25 05:26:59;;;;;;;82.03;35.73;;;0.60;99.90;;;;;;5024805;28;20203;-64
2023/01/25 05:29:28;;;;;;;82.53;37.07;;;0.60;99.90;;;;;;5025611;28;20273;-64
2023/01/25 05:31:58;;;;;;;79.30;37.43;;;0.60;99.90;;;;;;5020580;28;20218;-64
2023/01/25 05:34:26;;;;;;;79.57;37.00;;;0.60;99.90;;;;;;5021991;28;20197;-64
2023/01/25 05:36:55;;;;;;;78.67;36.87;;;0.60;99.90;;;;;;5031240;28;20851;-64
2023/01/25 05:39:23;;;;;;;81.13;37.43;;;0.60;99.90;;;;;;5025631;28;20185;-64
2023/01/25 05:41:52;;;;;;;74.93;35.53;;;0.60;99.90;;;;;;5027837;28;20217;-64
2023/01/25 05:44:20;;;;;;;76.37;35.97;;;0.60;99.90;;;;;;5027046;28;20198;-64
2023/01/25 05:46:48;;;;;;;68.70;33.23;;;0.60;99.90;;;;;;5023062;28;20229;-64
2023/01/25 05:49:19;;;;;;;72.53;34.57;;;0.60;99.90;;;;;;5030203;28;20197;-64
2023/01/25 05:51:47;;;;;;;73.13;34.37;;;0.60;99.90;;;;;;5019380;28;20194;-64
2023/01/25 05:54:18;;;;;;;71.03;34.80;;;0.60;99.90;;;;;;5024291;28;20556;-64
2023/01/25 05:56:48;;;;;;;71.87;33.97;;;0.50;99.90;;;;;;5027349;28;20221;-64
2023/01/25 05:59:17;;;;;;;71.70;34.20;;;0.50;99.90;;;;;;5021920;28;20205;-64
2023/01/25 06:01:45;;;;;;;72.70;34.53;;;0.50;99.90;;;;;;5017029;28;20197;-64
2023/01/25 06:04:15;;;;;;;72.67;33.33;;;0.50;99.90;;;;;;5021253;28;20198;-64
2023/01/25 06:06:45;;;;;;;67.60;33.10;;;0.50;99.90;;;;;;5028068;28;20235;-64
2023/01/25 06:09:14;;;;;;;66.37;32.97;;;0.50;99.90;;;;;;5024700;28;20198;-63
2023/01/25 06:11:43;;;;;;;67.97;32.13;;;0.40;99.90;;;;;;5026083;28;20189;-63
2023/01/25 06:14:12;;;;;;;69.67;33.27;;;0.40;99.90;;;;;;5023402;28;20790;-64
2023/01/25 06:16:40;;;;;;;70.50;33.73;;;0.40;99.90;;;;;;5020291;28;20260;-63
2023/01/25 06:19:09;;;;;;;73.13;33.17;;;0.30;99.90;;;;;;5022025;28;20201;-63
2023/01/25 06:21:37;;;;;;;71.00;33.37;;;0.30;99.90;;;;;;5022650;28;20334;-64
2023/01/25 06:24:07;;;;;;;70.23;33.67;;;0.40;99.90;;;;;;5020022;28;20213;-64
2023/01/25 06:26:35;;;;;;;73.77;34.20;;;0.40;99.90;;;;;;5025830;28;20201;-63
2023/01/25 06:29:05;;;;;;;74.97;34.00;;;0.40;99.90;;;;;;5022842;28;20212;-63
2023/01/25 06:31:34;;;;;;;67.50;33.37;;;0.40;99.90;;;;;;5025816;28;20204;-64
2023/01/25 06:34:05;;;;;;;72.77;33.80;;;0.40;99.90;;;;;;5021864;28;20267;-64
2023/01/25 06:36:34;;;;;;;73.17;33.47;;;0.30;99.90;;;;;;5020825;28;20201;-64
2023/01/25 06:39:02;;;;;;;65.13;32.00;;;0.30;99.90;;;;;;5022521;28;20193;-64
2023/01/25 06:41:32;;;;;;;69.53;33.43;;;0.30;99.90;;;;;;5020555;28;20205;-63
2023/01/25 06:44:00;;;;;;;81.67;36.33;;;0.30;99.90;;;;;;5024632;28;20545;-64
2023/01/25 06:46:32;;;;;;;76.70;34.40;;;0.20;99.90;;;;;;5023511;28;20712;-64
2023/01/25 06:49:01;;;;;;;75.47;35.20;;;0.20;99.90;;;;;;5020018;28;20228;-64
2023/01/25 06:51:29;;;;;;;77.27;35.60;;;0.20;99.90;;;;;;5027325;28;20276;-64
2023/01/25 06:54:01;;;;;;;75.60;35.13;;;0.20;99.90;;;;;;5020908;28;20213;-64
2023/01/25 06:56:31;;;;;;;77.23;36.13;;;0.30;99.90;;;;;;5017433;28;20209;-64
2023/01/25 06:59:01;;;;;;;74.77;34.97;;;0.30;99.90;;;;;;5024429;28;20226;-64
2023/01/25 07:01:29;;;;;;;75.20;34.53;;;0.30;99.90;;;;;;5022536;28;20263;-64
2023/01/25 07:03:59;;;;;;;75.37;34.73;;;0.30;99.90;;;;;;5022726;28;20250;-64
2023/01/25 07:06:33;;;;;;;70.17;33.27;;;0.30;99.90;;;;;;5022674;28;20584;-64
2023/01/25 07:09:06;;;;;;;73.57;35.00;;;0.30;99.90;;;;;;5020093;28;20669;-64
2023/01/25 07:11:34;;;;;;;70.13;32.37;;;0.30;99.90;;;;;;5017780;28;20197;-63
2023/01/25 07:14:04;;;;;;;64.10;31.03;;;0.30;99.90;;;;;;5023277;28;20552;-64
2023/01/25 07:16:37;;;;;;;73.27;33.83;;;0.30;99.90;;;;;;5021466;28;20256;-64
2023/01/25 07:19:06;;;;;;;73.37;34.30;;;0.30;99.90;;;;;;5022154;28;20198;-64
2023/01/25 07:21:34;;;;;;;76.23;35.37;;;0.20;99.90;;;;;;5025815;28;20195;-64
2023/01/25 07:24:04;;;;;;;72.30;34.10;;;0.30;99.90;;;;;;5020018;28;20193;-64
2023/01/25 07:26:33;;;;;;;74.97;34.53;;;0.30;99.90;;;;;;5017283;28;20194;-64
2023/01/25 07:29:01;;;;;;;64.03;31.87;;;0.30;99.90;;;;;;5024653;28;20196;-64
2023/01/25 07:31:31;;;;;;;73.83;33.67;;;0.20;99.90;;;;;;5024265;28;20201;-64
2023/01/25 07:33:59;;;;;;;71.57;33.70;;;0.20;99.90;;;;;;5025201;28;20220;-64
2023/01/25 07:36:27;;;;;;;77.03;34.80;;;0.20;99.90;;;;;;5017676;28;20310;-64
2023/01/25 07:38:57;;;;;;;74.67;33.80;;;0.20;99.90;;;;;;5022149;28;20197;-64
2023/01/25 07:41:25;;;;;;;68.93;33.33;;;0.20;99.90;;;;;;5041825;28;20251;-64
2023/01/25 07:43:54;;;;;;;78.43;35.57;;;0.20;99.90;;;;;;5021923;28;20198;-64
2023/01/25 07:46:23;;;;;;;78.73;36.43;;;0.20;99.90;;;;;;5023120;28;20201;-64
2023/01/25 07:48:53;;;;;;;77.13;36.10;;;0.20;99.90;;;;;;5013999;28;20556;-63
2023/01/25 07:51:25;;;;;;;72.00;33.50;;;0.20;99.90;;;;;;5021455;28;20256;-63
2023/01/25 07:53:55;;;;;;;82.93;35.80;;;0.20;99.90;;;;;;5023374;28;20248;-64
2023/01/25 07:56:25;;;;;;;78.47;36.60;;;0.20;99.90;;;;;;5017566;28;20232;-64
2023/01/25 07:58:55;;;;;;;78.60;35.03;;;0.30;99.90;;;;;;5021068;28;20203;-63
2023/01/25 08:01:25;;;;;;;84.03;37.40;;;0.30;99.90;;;;;;5028452;28;20198;-64
2023/01/25 08:03:56;;;;;;;86.93;38.90;;;0.30;99.90;;;;;;5022465;28;20199;-64
2023/01/25 08:06:26;;;;;;;89.97;39.47;;;0.30;99.90;;;;;;5018538;28;20280;-63
2023/01/25 08:08:55;;;;;;;90.03;39.07;;;0.30;99.90;;;;;;5037278;28;20565;-64
2023/01/25 08:11:26;;;;;;;89.20;38.87;;;0.30;99.90;;;;;;5027003;28;20197;-64
2023/01/25 08:13:55;;;;;;;86.50;36.87;;;0.40;99.90;;;;;;5026962;28;20209;-64
2023/01/25 08:16:25;;;;;;;83.53;37.17;;;0.40;99.90;;;;;;5042569;28;20197;-64
2023/01/25 08:18:56;;;;;;;84.77;37.97;;;0.40;99.90;;;;;;5017434;28;20686;-64
2023/01/25 08:21:28;;;;;;;85.10;37.07;;;0.40;99.90;;;;;;5027086;28;20660;-64
2023/01/25 08:23:58;;;;;;;97.83;38.17;;;0.40;99.90;;;;;;5020808;28;20653;-63
2023/01/25 08:26:27;;;;;;;83.07;38.87;;;0.40;99.90;;;;;;5029353;28;20199;-64
2023/01/25 08:28:56;;;;;;;83.07;38.00;;;0.40;99.90;;;;;;5016794;28;20202;-64
2023/01/25 08:31:26;;;;;;;89.43;38.33;;;0.40;99.90;;;;;;5025121;28;20220;-66
2023/01/25 08:33:57;;;;;;;81.63;38.17;;;0.40;99.90;;;;;;5024949;28;20205;-66
2023/01/25 08:36:27;;;;;;;86.70;37.30;;;0.40;99.90;;;;;;5026619;28;20193;-66
2023/01/25 08:38:57;;;;;;;81.03;37.40;;;0.40;99.90;;;;;;5026563;28;20634;-66
2023/01/25 08:41:26;;;;;;;89.90;38.73;;;0.40;99.90;;;;;;5028624;28;20189;-65
2023/01/25 08:43:55;;;;;;;84.97;37.57;;;0.40;99.90;;;;;;5029067;28;20195;-66
2023/01/25 08:46:26;;;;;;;88.63;38.57;;;0.40;99.90;;;;;;5030858;28;20281;-66
2023/01/25 08:49:02;;;;;;;86.63;38.17;;;0.40;99.90;;;;;;5027090;28;20213;-66
2023/01/25 08:51:31;;;;;;;86.60;38.17;;;0.50;99.90;;;;;;5026608;28;20201;-66
2023/01/25 08:54:02;;;;;;;90.73;38.90;;;0.40;99.90;;;;;;5026779;28;20220;-66
2023/01/25 08:56:31;;;;;;;83.30;37.77;;;0.40;99.90;;;;;;5029298;28;20229;-65
2023/01/25 08:58:59;;;;;;;90.33;38.23;;;0.40;99.90;;;;;;5013121;28;20201;-66
2023/01/25 09:01:28;;;;;;;81.00;36.47;;;0.50;99.90;;;;;;5024190;28;20686;-66
2023/01/25 09:03:56;;;;;;;90.13;37.63;;;0.50;99.90;;;;;;5018351;28;20629;-66
2023/01/25 09:06:26;;;;;;;84.33;37.93;;;0.50;99.90;;;;;;5024421;28;20644;-65
2023/01/25 09:08:54;;;;;;;81.97;37.20;;;0.50;99.90;;;;;;5029161;28;20517;-66
2023/01/25 09:11:23;;;;;;;87.60;38.17;;;0.50;99.90;;;;;;5029524;28;20683;-66
2023/01/25 09:13:51;;;;;;;85.37;38.07;;;0.50;99.90;;;;;;5027649;28;20213;-66
2023/01/25 09:16:27;;;;;;;87.83;38.33;;;0.50;99.90;;;;;;5028829;28;20201;-66
2023/01/25 09:18:57;;;;;;;88.47;37.57;;;0.50;99.90;;;;;;5026998;28;20284;-66
2023/01/25 09:21:28;;;;;;;82.13;36.57;;;0.50;99.90;;;;;;5026475;28;20668;-66
2023/01/25 09:23:57;;;;;;;83.00;36.40;;;0.50;99.90;;;;;;5024250;28;20192;-66
2023/01/25 09:26:36;;;;;;;89.90;37.57;;;0.60;99.90;;;;;;5023873;28;20247;-66
2023/01/25 09:29:06;;;;;;;90.57;38.33;;;0.60;99.90;;;;;;5026150;28;20727;-65
2023/01/25 09:31:38;;;;;;;87.33;38.00;;;0.50;99.90;;;;;;5020699;28;20677;-66
2023/01/25 09:34:08;;;;;;;87.63;39.67;;;0.60;99.90;;;;;;5030371;28;20383;-65
2023/01/25 09:36:38;;;;;;;79.77;35.23;;;0.60;99.90;;;;;;5025878;28;20225;-66
2023/01/25 09:39:07;;;;;;;87.30;37.30;;;0.60;99.90;;;;;;5020766;28;20205;-66
2023/01/25 09:41:54;;;;;;;88.07;36.70;;;0.60;99.90;;;;;;5020673;28;20194;-65
2023/01/25 09:44:38;;;;;;;84.07;36.37;;;0.60;99.90;;;;;;5024688;28;20182;-65
2023/01/25 09:47:18;;;;;;;82.33;36.37;;;0.50;99.90;;;;;;5026130;28;20193;-66
2023/01/25 09:50:04;;;;;;;90.27;37.57;;;0.50;99.90;;;;;;5023616;28;20578;-66
2023/01/25 09:53:06;;;;;;;88.30;37.40;;;0.50;99.90;;;;;;5039207;28;20202;-66
2023/01/25 09:55:35;;;;;;;90.03;38.23;;;0.50;99.90;;;;;;5021633;28;20209;-65
2023/01/25 09:58:14;;;;;;;96.27;40.67;;;0.50;99.90;;;;;;5025686;28;20216;-65
2023/01/25 10:00:46;;;;;;;97.53;39.70;;;0.50;99.90;;;;;;5026053;28;20205;-66
2023/01/25 10:03:21;;;;;;;92.93;38.87;;;0.60;99.90;;;;;;5020605;28;20649;-66
2023/01/25 10:05:51;;;;;;;89.03;38.97;;;0.60;99.90;;;;;;5026137;28;20193;-66
2023/01/25 10:08:27;;;;;;;88.50;37.10;;;0.70;99.90;;;;;;5027944;28;20233;-66
2023/01/25 10:11:00;;;;;;;92.60;38.53;;;0.70;99.90;;;;;;5021896;28;20263;-66
2023/01/25 10:13:30;;;;;;;89.33;37.87;;;0.70;99.90;;;;;;5027568;28;20197;-66
2023/01/25 10:16:06;;;;;;;89.63;38.77;;;0.70;99.90;;;;;;5022386;28;20225;-66
2023/01/25 10:18:56;;;;;;;93.80;40.13;;;0.60;99.90;;;;;;5015465;28;20198;-66
2023/01/25 10:21:29;;;;;;;91.13;38.80;;;0.70;99.90;;;;;;5021464;28;20205;-66
2023/01/25 10:24:25;;;;;;;87.47;37.60;;;0.70;99.90;;;;;;5024570;28;20187;-66
2023/01/25 10:26:57;;;;;;;94.20;39.87;;;0.70;99.90;;;;;;5023657;28;20197;-66
2023/01/25 10:29:28;;;;;;;95.57;40.37;;;0.70;99.90;;;;;;5022641;28;20716;-66
2023/01/25 10:32:11;;;;;;;101.33;40.53;;;0.80;99.90;;;;;;5024597;28;20205;-66
2023/01/25 10:34:44;;;;;;;94.30;38.80;;;0.70;99.90;;;;;;5026042;28;20707;-66
2023/01/25 10:37:27;;;;;;;92.90;38.80;;;0.70;99.90;;;;;;5018902;28;20194;-66
2023/01/25 10:40:02;;;;;;;91.77;38.93;;;0.60;99.90;;;;;;5021072;28;20207;-66
2023/01/25 10:42:36;;;;;;;94.40;38.80;;;0.60;99.90;;;;;;5020654;28;20221;-66
2023/01/25 10:45:11;;;;;;;91.00;38.87;;;0.60;99.90;;;;;;5016187;28;20192;-66
2023/01/25 10:48:22;;;;;;;94.17;39.73;;;0.60;99.90;;;;;;5030729;28;20709;-66
2023/01/25 10:51:34;;;;;;;86.13;37.37;;;0.60;99.90;;;;;;5019206;28;20205;-66
2023/01/25 10:54:42;;;;;;;89.80;36.90;;;0.60;99.90;;;;;;5022053;28;20797;-66
2023/01/25 10:57:56;;;;;;;96.50;39.87;;;0.60;99.90;;;;;;5016960;28;20605;-65
2023/01/25 11:00:27;;;;;;;101.73;40.97;;;0.60;99.90;;;;;;5027361;28;20201;-66
2023/01/25 11:03:20;;;;;;;95.70;39.70;;;0.70;99.90;;;;;;5019887;28;20711;-66
2023/01/25 11:05:54;;;;;;;91.03;38.07;;;0.80;99.90;;;;;;5018627;28;20243;-66
2023/01/25 11:08:25;;;;;;;92.07;39.23;;;0.70;99.90;;;;;;5018892;28;20333;-66
2023/01/25 11:10:54;;;;;;;98.27;39.73;;;0.80;99.90;;;;;;5025250;28;20212;-66
2023/01/25 11:13:26;;;;;;;92.40;39.77;;;0.80;99.90;;;;;;5026840;28;20198;-65
2023/01/25 11:16:14;;;;;;;92.50;38.90;;;0.90;99.90;;;;;;5025834;28;20209;-66
2023/01/25 11:18:51;;;;;;;96.27;40.80;;;0.90;99.90;;;;;;5018661;28;20211;-66
2023/01/25 11:21:22;;;;;;;93.60;39.40;;;1.00;99.90;;;;;;5029154;28;20205;-66
2023/01/25 11:24:02;;;;;;;94.70;38.73;;;0.90;99.90;;;;;;5028682;28;20205;-66
2023/01/25 11:26:36;;;;;;;93.13;38.23;;;0.80;99.90;;;;;;4998320;28;20201;-66
2023/01/25 11:29:13;;;;;;;90.60;38.53;;;0.80;99.90;;;;;;5022364;28;20750;-67
2023/01/25 11:31:45;;;;;;;97.67;40.90;;;0.90;99.90;;;;;;5013844;28;20268;-66
2023/01/25 11:34:16;;;;;;;93.73;38.00;;;0.80;99.90;;;;;;5012497;28;20221;-66
2023/01/25 11:37:07;;;;;;;94.80;39.33;;;0.70;99.90;;;;;;5017584;28;21216;-65
2023/01/25 11:39:47;;;;;;;96.03;37.50;;;0.60;99.90;;;;;;5020350;28;20289;-66
2023/01/25 11:42:28;;;;;;;93.23;37.17;;;0.60;99.90;;;;;;5016845;28;20225;-66
2023/01/25 11:45:29;;;;;;;88.10;37.67;;;0.60;99.90;;;;;;5018121;28;20205;-66
2023/01/25 11:48:12;;;;;;;92.73;37.57;;;0.50;99.90;;;;;;5025161;28;20201;-66
2023/01/25 11:50:46;;;;;;;94.27;37.13;;;0.60;99.90;;;;;;5014859;28;20196;-66
2023/01/25 11:53:32;;;;;;;96.70;38.40;;;0.60;99.90;;;;;;5026777;28;20232;-66
2023/01/25 11:56:09;;;;;;;94.53;38.13;;;0.50;99.90;;;;;;5019212;28;20228;-65
2023/01/25 11:59:00;;;;;;;96.83;39.77;;;0.50;99.90;;;;;;5018677;28;20205;-66
2023/01/25 12:01:44;;;;;;;89.83;37.37;;;0.50;99.90;;;;;;5015383;28;20208;-66
2023/01/25 12:04:48;;;;;;;91.47;38.13;;;0.50;99.90;;;;;;5037027;28;20189;-66
2023/01/25 12:07:25;;;;;;;93.87;39.03;;;0.60;99.90;;;;;;5016566;28;20240;-65
2023/01/25 12:10:12;;;;;;;92.10;37.50;;;0.70;99.90;;;;;;5022201;28;20193;-66
2023/01/25 12:12:50;;;;;;;97.87;40.03;;;0.70;99.90;;;;;;5024009;28;20549;-66
2023/01/25 12:15:44;;;;;;;102.77;39.47;;;0.70;99.90;;;;;;5015092;28;20694;-66
2023/01/25 12:18:39;;;;;;;97.03;39.00;;;0.50;99.90;;;;;;5018888;28;20198;-66
2023/01/25 12:21:17;;;;;;;103.13;39.37;;;0.60;99.90;;;;;;5018144;28;20251;-66
2023/01/25 12:24:11;;;;;;;101.07;39.10;;;0.60;99.90;;;;;;5016967;28;20703;-66
2023/01/25 12:26:48;;;;;;;97.43;38.43;;;0.70;99.90;;;;;;5019148;28;20265;-66
2023/01/25 12:29:26;;;;;;;104.37;39.47;;;0.80;99.90;;;;;;5011195;28;20205;-66
2023/01/25 12:32:01;;;;;;;103.27;39.50;;;0.80;99.90;;;;;;5019291;28;20201;-66
2023/01/25 12:34:36;;;;;;;99.50;39.70;;;0.70;99.90;;;;;;5016092;28;20238;-66
2023/01/25 12:37:13;;;;;;;102.17;39.60;;;0.70;99.90;;;;;;5016453;28;20210;-66
2023/01/25 12:39:45;;;;;;;103.40;40.37;;;0.70;99.90;;;;;;5022848;28;20205;-66
2023/01/25 12:42:20;;;;;;;99.13;39.67;;;0.70;99.90;;;;;;5019070;28;20223;-66
2023/01/25 12:44:54;;;;;;;102.80;39.77;;;0.80;99.90;;;;;;5015984;28;20229;-66
2023/01/25 12:47:31;;;;;;;90.53;38.20;;;0.80;99.90;;;;;;5020970;28;20204;-66
2023/01/25 12:50:12;;;;;;;99.00;38.73;;;0.70;99.90;;;;;;5015628;28;20208;-65
2023/01/25 12:52:46;;;;;;;100.10;40.67;;;0.60;99.90;;;;;;5022460;28;20194;-66
2023/01/25 12:55:17;;;;;;;95.13;38.37;;;0.70;99.90;;;;;;5007369;28;20201;-66
2023/01/25 12:57:55;;;;;;;110.47;42.60;;;0.70;99.90;;;;;;5012113;28;20248;-66
2023/01/25 13:00:32;;;;;;;92.87;37.60;;;0.80;99.90;;;;;;5008955;28;20652;-66
2023/01/25 13:03:12;;;;;;;106.90;41.87;;;0.80;99.90;;;;;;5018393;28;20197;-66